Time;durP1;ratioP1;P1;durP2;ratioP2;P2;SDS_P1;SDS_P2;PMS_P1;PMS_P2;Temp;Humidity;BMP_temperature;BMP_pressure;BME280_temperature;BME280_humidity;BME280_pressure;Samples;Min_cycle;Max_cycle;Signal;HPM_P1;HPM_P2
2021/12/29 00:00:57;;;;;;;20.90;8.90;;;;;;;9.94;100.00;99533.88;5043507;28;20065;-73
2021/12/29 00:03:24;;;;;;;23.83;11.55;;;;;;;9.92;100.00;99535.50;5039028;28;20050;-74
2021/12/29 00:05:51;;;;;;;15.60;6.90;;;;;;;9.92;100.00;99541.81;5031367;28;20084;-73
2021/12/29 00:08:17;;;;;;;21.15;9.85;;;;;;;9.92;100.00;99539.03;5037732;28;20049;-73
2021/12/29 00:10:46;;;;;;;22.00;11.13;;;;;;;9.92;100.00;99544.56;5039950;28;20502;-73
2021/12/29 00:13:13;;;;;;;21.42;10.15;;;;;;;9.96;100.00;99536.25;5030531;28;20103;-72
2021/12/29 00:15:40;;;;;;;9.88;4.20;;;;;;;9.82;100.00;99540.00;5034617;28;20053;-74
2021/12/29 00:18:11;;;;;;;8.55;3.58;;;;;;;9.82;100.00;99542.78;5036280;28;20052;-73
2021/12/29 00:20:38;;;;;;;2.15;1.00;;;;;;;9.84;100.00;99545.91;5031746;28;20056;-73
2021/12/29 00:23:07;;;;;;;12.82;5.97;;;;;;;9.87;100.00;99561.66;5036100;28;20059;-73
2021/12/29 00:25:38;;;;;;;10.77;4.30;;;;;;;9.83;100.00;99563.66;5033841;28;20141;-73
2021/12/29 00:28:08;;;;;;;9.30;5.22;;;;;;;9.87;100.00;99563.63;5036419;28;20156;-74
2021/12/29 00:30:34;;;;;;;21.83;9.45;;;;;;;9.92;100.00;99563.13;5044085;28;20050;-74
2021/12/29 00:33:01;;;;;;;20.20;10.25;;;;;;;9.92;100.00;99558.38;5032019;28;20476;-72
2021/12/29 00:35:29;;;;;;;13.77;6.32;;;;;;;9.85;100.00;99566.78;5034819;28;20058;-73
2021/12/29 00:37:59;;;;;;;18.77;8.50;;;;;;;9.84;100.00;99567.22;5038114;28;20788;-73
2021/12/29 00:40:27;;;;;;;24.35;10.27;;;;;;;9.91;100.00;99578.94;5040104;28;20052;-75
2021/12/29 00:42:53;;;;;;;18.17;9.20;;;;;;;9.90;100.00;99580.16;5036704;28;20136;-72
2021/12/29 00:45:20;;;;;;;8.23;3.30;;;;;;;9.82;100.00;99584.19;5044760;28;20164;-75
2021/12/29 00:47:48;;;;;;;22.20;10.35;;;;;;;9.88;100.00;99590.03;5038730;28;20053;-73
2021/12/29 00:50:16;;;;;;;18.55;8.45;;;;;;;9.89;100.00;99608.94;5034048;28;20067;-73
2021/12/29 00:52:44;;;;;;;10.68;5.30;;;;;;;9.85;100.00;99619.28;5036085;28;20047;-74
2021/12/29 00:55:13;;;;;;;6.00;2.75;;;;;;;9.85;100.00;99635.06;5040542;28;20407;-73
2021/12/29 00:57:40;;;;;;;17.67;9.43;;;;;;;9.91;100.00;99639.72;5038268;28;20041;-73
2021/12/29 01:00:11;;;;;;;10.32;4.00;;;;;;;9.82;100.00;99647.75;5035113;28;20050;-73
2021/12/29 01:02:38;;;;;;;16.60;6.82;;;;;;;9.90;100.00;99660.28;5034820;28;20882;-75
2021/12/29 01:05:07;;;;;;;11.90;5.78;;;;;;;9.90;100.00;99665.00;5042272;28;20040;-72
2021/12/29 01:07:34;;;;;;;14.02;6.63;;;;;;;9.86;100.00;99667.81;5035203;28;20136;-76
2021/12/29 01:10:02;;;;;;;7.85;3.88;;;;;;;9.85;100.00;99673.75;5039895;28;20136;-72
2021/12/29 01:12:28;;;;;;;7.85;3.85;;;;;;;9.91;100.00;99688.66;5042712;28;20140;-74
2021/12/29 01:14:56;;;;;;;14.25;7.55;;;;;;;9.90;100.00;99689.88;5030505;28;20140;-73
2021/12/29 01:17:24;;;;;;;28.55;13.70;;;;;;;9.93;100.00;99692.56;5040071;28;20053;-75
2021/12/29 01:19:54;;;;;;;16.00;7.55;;;;;;;9.89;100.00;99700.13;5040267;28;20135;-74
2021/12/29 01:22:21;;;;;;;21.88;12.45;;;;;;;9.93;100.00;99703.63;5035862;28;20128;-73
2021/12/29 01:24:48;;;;;;;18.65;9.07;;;;;;;9.90;100.00;99698.16;5037363;28;20134;-73
2021/12/29 01:27:16;;;;;;;11.50;6.22;;;;;;;9.89;100.00;99708.41;5036772;28;20057;-73
2021/12/29 01:29:43;;;;;;;17.00;9.65;;;;;;;9.91;100.00;99719.06;5057632;28;20164;-73
2021/12/29 01:32:10;;;;;;;24.98;12.10;;;;;;;9.97;100.00;99731.22;5037324;28;20128;-75
2021/12/29 01:34:36;;;;;;;7.93;3.30;;;;;;;9.91;100.00;99743.91;5035384;28;20065;-73
2021/12/29 01:37:04;;;;;;;29.75;14.55;;;;;;;9.94;100.00;99743.88;5032001;28;20488;-75
2021/12/29 01:39:30;;;;;;;16.35;8.10;;;;;;;9.90;100.00;99751.44;5036708;28;20048;-73
2021/12/29 01:41:58;;;;;;;29.20;13.82;;;;;;;9.92;100.00;99748.25;5046749;28;20105;-74
2021/12/29 01:44:27;;;;;;;13.77;5.85;;;;;;;9.84;100.00;99763.34;5035698;28;20125;-73
2021/12/29 01:46:56;;;;;;;2.28;1.73;;;;;;;9.86;100.00;99761.75;5037427;28;20533;-74
2021/12/29 01:49:23;;;;;;;20.00;9.40;;;;;;;9.89;100.00;99766.44;5044367;28;20132;-76
2021/12/29 01:52:01;;;;;;;14.63;6.82;;;;;;;9.87;100.00;99768.84;5029054;28;20089;-75
2021/12/29 01:54:28;;;;;;;17.95;8.43;;;;;;;9.85;100.00;99782.28;5041726;28;20119;-74
2021/12/29 01:56:57;;;;;;;10.00;5.10;;;;;;;9.85;100.00;99782.28;5037156;28;20544;-73
2021/12/29 01:59:25;;;;;;;19.10;8.75;;;;;;;9.86;100.00;99792.13;5042571;28;20139;-75
2021/12/29 02:01:52;;;;;;;15.68;7.32;;;;;;;9.80;100.00;99804.06;5041252;28;20051;-74
2021/12/29 02:04:20;;;;;;;21.20;9.75;;;;;;;9.82;100.00;99810.75;5028570;28;20065;-73
2021/12/29 02:06:47;;;;;;;12.75;5.72;;;;;;;9.82;100.00;99813.50;5031048;28;20115;-73
2021/12/29 02:09:14;;;;;;;12.88;5.25;;;;;;;9.79;100.00;99824.59;5029571;28;20854;-73
2021/12/29 02:11:44;;;;;;;20.10;9.50;;;;;;;9.85;100.00;99826.50;5041675;28;20132;-74
2021/12/29 02:14:11;;;;;;;10.10;4.65;;;;;;;9.77;100.00;99827.78;5034236;28;20071;-74
2021/12/29 02:16:38;;;;;;;16.40;7.43;;;;;;;9.82;100.00;99819.03;5040643;28;20140;-73
2021/12/29 02:19:12;;;;;;;21.38;8.95;;;;;;;9.81;100.00;99836.81;5029339;28;20049;-73
2021/12/29 02:21:43;;;;;;;22.58;9.80;;;;;;;9.82;100.00;99829.31;5039979;28;20124;-73
2021/12/29 02:26:39;;;;;;;23.73;11.07;;;;;;;9.82;100.00;99841.13;5029998;28;20087;-72
2021/12/29 02:29:11;;;;;;;21.25;9.25;;;;;;;9.80;100.00;99826.16;5039737;28;20141;-73
2021/12/29 02:31:39;;;;;;;16.20;7.18;;;;;;;9.82;100.00;99830.06;5041181;28;20068;-73
2021/12/29 02:34:08;;;;;;;15.57;5.68;;;;;;;9.78;100.00;99837.63;5031297;28;20128;-73
2021/12/29 02:36:35;;;;;;;16.73;6.20;;;;;;;9.77;100.00;99838.03;5040669;28;20053;-73
2021/12/29 02:39:04;;;;;;;8.82;4.00;;;;;;;9.77;100.00;99838.03;5030748;28;20136;-73
2021/12/29 02:41:31;;;;;;;10.82;4.90;;;;;;;9.76;100.00;99836.47;5035909;28;20077;-73
2021/12/29 02:44:01;;;;;;;3.97;2.60;;;;;;;9.78;100.00;99848.69;5042971;28;20052;-73
2021/12/29 02:46:29;;;;;;;19.75;5.25;;;;;;;9.77;100.00;99855.41;5036407;28;20045;-73
2021/12/29 02:49:02;;;;;;;21.40;9.75;;;;;;;9.82;100.00;99859.69;5042107;28;20052;-73
2021/12/29 02:51:31;;;;;;;19.95;8.93;;;;;;;9.85;100.00;99872.66;5039879;28;20041;-73
2021/12/29 02:53:58;;;;;;;21.63;9.63;;;;;;;9.85;100.00;99876.22;5045052;28;20514;-73
2021/12/29 02:56:27;;;;;;;7.50;3.30;;;;;;;9.82;100.00;99879.03;5028800;28;20080;-74
2021/12/29 02:58:54;;;;;;;22.73;9.35;;;;;;;9.91;100.00;99888.41;5039418;28;20129;-73
2021/12/29 03:01:22;;;;;;;16.25;6.38;;;;;;;9.90;100.00;99892.38;5032442;28;20187;-73
2021/12/29 03:03:49;;;;;;;20.92;8.73;;;;;;;9.93;100.00;99901.81;5043308;28;20071;-74
2021/12/29 03:06:16;;;;;;;24.08;9.40;;;;;;;9.92;100.00;99903.75;5042885;28;20647;-73
2021/12/29 03:08:43;;;;;;;19.05;8.48;;;;;;;9.91;100.00;99904.19;5037137;28;20045;-73
2021/12/29 03:11:09;;;;;;;4.93;2.35;;;;;;;9.82;100.00;99901.13;5032211;28;20063;-73
2021/12/29 03:13:38;;;;;;;16.88;7.32;;;;;;;9.86;100.00;99899.88;5036034;28;20076;-72
2021/12/29 03:16:07;;;;;;;8.05;3.83;;;;;;;9.87;100.00;99914.50;5044442;28;20045;-74
2021/12/29 03:18:34;;;;;;;4.47;1.85;;;;;;;9.87;100.00;99912.53;5040812;28;20091;-73
2021/12/29 03:21:01;;;;;;;21.88;10.07;;;;;;;9.90;100.00;99911.69;5031660;28;20054;-73
2021/12/29 03:23:28;;;;;;;24.70;12.02;;;;;;;9.90;100.00;99897.88;5047032;28;20140;-73
2021/12/29 03:25:55;;;;;;;20.48;9.43;;;;;;;9.90;100.00;99906.19;5042805;28;20059;-72
2021/12/29 03:28:23;;;;;;;24.60;10.10;;;;;;;9.89;100.00;99906.59;5039983;28;20087;-73
2021/12/29 03:30:54;;;;;;;17.95;8.32;;;;;;;9.87;100.00;99907.00;5034859;28;20057;-74
2021/12/29 03:33:23;;;;;;;18.42;8.23;;;;;;;9.84;100.00;99907.03;5030871;28;20084;-73
2021/12/29 03:35:53;;;;;;;28.20;12.23;;;;;;;9.90;100.00;99908.16;5039584;28;20136;-73
2021/12/29 03:38:22;;;;;;;8.00;3.97;;;;;;;9.82;100.00;99912.19;5031079;28;20057;-75
2021/12/29 03:40:50;;;;;;;20.38;9.02;;;;;;;9.86;100.00;99910.16;5041651;28;20053;-73
2021/12/29 03:43:17;;;;;;;23.33;10.85;;;;;;;9.85;100.00;99916.88;5042675;28;20466;-72
2021/12/29 03:45:47;;;;;;;27.67;13.98;;;;;;;9.92;100.00;99934.16;5050462;28;20136;-72
2021/12/29 03:48:15;;;;;;;29.77;13.82;;;;;;;9.90;100.00;99935.78;5040210;28;20136;-73
2021/12/29 03:50:42;;;;;;;26.08;11.38;;;;;;;9.82;100.00;99932.28;5037908;28;20049;-75
2021/12/29 03:53:10;;;;;;;19.00;7.78;;;;;;;9.79;100.00;99933.13;5038383;28;20406;-73
2021/12/29 03:55:36;;;;;;;16.38;6.15;;;;;;;9.87;100.00;99945.69;5044737;28;20228;-75
2021/12/29 03:58:03;;;;;;;15.90;6.82;;;;;;;9.84;100.00;99954.00;5043382;28;20049;-74
2021/12/29 04:00:30;;;;;;;22.80;10.60;;;;;;;9.92;100.00;99956.28;5046201;28;20138;-73
2021/12/29 04:02:56;;;;;;;16.17;7.15;;;;;;;9.86;100.00;99954.38;5039135;28;20144;-73
2021/12/29 04:05:24;;;;;;;24.83;11.18;;;;;;;9.89;100.00;99957.09;5042536;28;20476;-73
2021/12/29 04:07:56;;;;;;;15.68;7.43;;;;;;;9.87;100.00;99967.78;5031977;28;20697;-73
2021/12/29 04:10:23;;;;;;;30.25;13.30;;;;;;;9.91;100.00;99979.56;5046728;28;20053;-73
2021/12/29 04:12:50;;;;;;;15.45;6.45;;;;;;;9.86;100.00;99985.53;5037046;28;20127;-73
2021/12/29 04:15:18;;;;;;;16.90;5.05;;;;;;;9.86;100.00;99985.53;5041333;28;20132;-75
2021/12/29 04:17:46;;;;;;;16.42;6.20;;;;;;;9.86;100.00;99991.06;5029256;28;20063;-73
2021/12/29 04:23:07;;;;;;;23.45;10.45;;;;;;;9.89;100.00;100000.53;5033703;28;20060;-72
2021/12/29 04:25:37;;;;;;;26.08;12.02;;;;;;;9.89;100.00;100006.81;5030697;28;20057;-74
2021/12/29 04:28:09;;;;;;;8.38;3.78;;;;;;;9.85;100.00;100014.38;5034167;28;20053;-74
2021/12/29 04:30:37;;;;;;;14.30;7.03;;;;;;;9.86;100.00;100015.94;5039489;28;20806;-73
2021/12/29 04:33:04;;;;;;;15.65;7.28;;;;;;;9.84;100.00;100010.03;5031335;28;20083;-73
2021/12/29 04:35:31;;;;;;;17.27;5.25;;;;;;;9.87;100.00;100020.28;5046393;28;20163;-73
2021/12/29 04:37:57;;;;;;;18.45;6.75;;;;;;;9.87;100.00;100025.81;5036996;28;20132;-73
2021/12/29 04:40:24;;;;;;;18.45;7.90;;;;;;;9.90;100.00;100033.28;5038980;28;20055;-74
2021/12/29 04:42:51;;;;;;;17.63;5.47;;;;;;;9.85;100.00;100035.69;5036309;28;20407;-73
2021/12/29 04:45:17;;;;;;;23.70;10.48;;;;;;;9.87;100.00;100036.84;5037991;28;20041;-73
2021/12/29 04:47:47;;;;;;;23.98;9.68;;;;;;;9.89;100.00;100039.22;5033715;28;20056;-72
2021/12/29 04:50:24;;;;;;;23.95;10.63;;;;;;;9.84;100.00;100045.16;5041417;28;20755;-73
2021/12/29 04:53:00;;;;;;;12.35;4.95;;;;;;;9.85;100.00;100053.03;5028752;28;20224;-73
2021/12/29 04:55:29;;;;;;;10.40;4.10;;;;;;;9.79;100.00;100067.72;5030648;28;20140;-73
2021/12/29 04:57:57;;;;;;;21.67;8.70;;;;;;;9.80;100.00;100070.06;5041095;28;20049;-73
2021/12/29 05:00:28;;;;;;;10.25;4.57;;;;;;;9.73;100.00;100067.38;5041743;28;20552;-74
2021/12/29 05:02:56;;;;;;;23.55;9.88;;;;;;;9.82;100.00;100072.44;5028900;28;20498;-73
2021/12/29 05:10:42;;;;;;;;;;;;;;;9.70;100.00;100073.72;5030859;28;20053;-73
2021/12/29 05:13:09;;;;;;;24.08;10.02;;;;;;;9.70;100.00;100082.00;5033811;28;20379;-73
2021/12/29 05:15:36;;;;;;;15.75;6.13;;;;;;;9.61;100.00;100078.91;5030615;28;20045;-73
2021/12/29 05:18:03;;;;;;;15.10;6.30;;;;;;;9.68;100.00;100083.56;5029669;28;20054;-73
2021/12/29 05:20:30;;;;;;;21.95;9.25;;;;;;;9.66;100.00;100078.44;5036349;28;20533;-75
2021/12/29 05:22:58;;;;;;;23.60;9.52;;;;;;;9.62;100.00;100088.75;5039013;28;20053;-73
2021/12/29 05:25:27;;;;;;;8.30;3.83;;;;;;;9.61;100.00;100094.66;5033301;28;20045;-73
2021/12/29 05:27:56;;;;;;;22.50;8.27;;;;;;;9.61;100.00;100106.50;5031651;28;20088;-74
2021/12/29 05:30:25;;;;;;;16.02;6.32;;;;;;;9.61;100.00;100112.03;5055612;28;20045;-73
2021/12/29 05:32:52;;;;;;;23.40;8.82;;;;;;;9.65;100.00;100118.31;5028612;28;20069;-73
2021/12/29 05:35:23;;;;;;;20.15;9.20;;;;;;;9.62;100.00;100112.84;5033353;28;20055;-73
2021/12/29 05:37:50;;;;;;;16.38;7.13;;;;;;;9.61;100.00;100119.53;5033080;28;20052;-72
2021/12/29 05:40:17;;;;;;;21.65;9.15;;;;;;;9.62;100.00;100118.34;5038583;28;20049;-73
2021/12/29 05:42:43;;;;;;;22.10;8.75;;;;;;;9.63;100.00;100126.25;5042973;28;20079;-72
2021/12/29 05:45:13;;;;;;;20.35;8.00;;;;;;;9.64;100.00;100132.53;5040075;28;20148;-72
2021/12/29 05:47:41;;;;;;;25.13;8.75;;;;;;;9.61;100.00;100127.81;5029431;28;20590;-73
2021/12/29 05:50:10;;;;;;;21.20;7.88;;;;;;;9.62;100.00;100127.41;5036773;28;20136;-73
2021/12/29 05:52:37;;;;;;;22.98;7.53;;;;;;;9.64;100.00;100132.53;5030907;28;20053;-73
2021/12/29 05:55:05;;;;;;;17.30;6.70;;;;;;;9.61;100.00;100138.88;5040108;28;20777;-72
2021/12/29 05:57:32;;;;;;;12.38;4.00;;;;;;;9.51;100.00;100148.78;5043070;28;20136;-73
2021/12/29 05:59:59;;;;;;;16.40;5.32;;;;;;;9.62;100.00;100145.97;5040118;28;20128;-73
2021/12/29 06:02:25;;;;;;;24.50;7.90;;;;;;;9.64;100.00;100143.59;5038302;28;20049;-73
2021/12/29 06:04:52;;;;;;;12.07;4.53;;;;;;;9.57;100.00;100147.19;5049274;28;20056;-73
2021/12/29 06:07:18;;;;;;;16.75;5.60;;;;;;;9.61;100.00;100136.91;5028772;28;20106;-72
2021/12/29 06:09:45;;;;;;;19.70;6.55;;;;;;;9.65;100.00;100147.94;5034914;28;20072;-74
2021/12/29 06:12:12;;;;;;;5.55;2.22;;;;;;;9.56;100.00;100151.16;5040967;28;20060;-73
2021/12/29 06:14:38;;;;;;;15.70;5.53;;;;;;;9.58;100.00;100151.50;5030852;28;20437;-73
2021/12/29 06:17:05;;;;;;;19.40;6.18;;;;;;;9.59;100.00;100147.56;5041391;28;20049;-72
2021/12/29 06:19:33;;;;;;;7.15;2.58;;;;;;;9.54;100.00;100148.00;5041785;28;20587;-75
2021/12/29 06:22:00;;;;;;;18.98;7.20;;;;;;;9.60;100.00;100154.66;5036868;28;20524;-74
2021/12/29 06:24:27;;;;;;;10.38;4.55;;;;;;;9.56;100.00;100150.34;5039266;28;20524;-73
2021/12/29 06:26:53;;;;;;;20.17;7.65;;;;;;;9.58;100.00;100148.75;5042387;28;20144;-74
2021/12/29 06:29:20;;;;;;;12.10;3.95;;;;;;;9.55;100.00;100163.38;5032537;28;20124;-74
2021/12/29 06:31:48;;;;;;;21.55;8.32;;;;;;;9.57;100.00;100163.75;5028409;28;20049;-73
2021/12/29 06:34:15;;;;;;;22.83;8.05;;;;;;;9.53;100.00;100165.75;5044490;28;20056;-73
2021/12/29 06:36:41;;;;;;;23.67;9.23;;;;;;;9.57;100.00;100165.72;5039377;28;20419;-73
2021/12/29 06:39:08;;;;;;;24.52;8.35;;;;;;;9.55;100.00;100168.88;5048498;28;20144;-73
2021/12/29 06:41:34;;;;;;;8.13;3.28;;;;;;;9.48;100.00;100181.94;5045217;28;20601;-74
2021/12/29 06:44:02;;;;;;;19.33;7.05;;;;;;;9.52;100.00;100180.75;5048174;28;20131;-74
2021/12/29 06:46:28;;;;;;;24.83;10.23;;;;;;;9.58;100.00;100183.84;5046148;28;20140;-73
2021/12/29 06:48:55;;;;;;;23.17;7.80;;;;;;;9.50;100.00;100183.13;5036351;28;20553;-74
2021/12/29 06:51:22;;;;;;;23.90;9.25;;;;;;;9.57;100.00;100196.91;5033667;28;20205;-75
2021/12/29 06:53:48;;;;;;;6.72;3.20;;;;;;;9.55;100.00;100198.50;5034074;28;20494;-73
2021/12/29 06:56:15;;;;;;;6.03;2.90;;;;;;;9.55;100.00;100210.31;5040456;28;20068;-74
2021/12/29 06:58:41;;;;;;;19.92;6.97;;;;;;;9.60;100.00;100209.91;5043239;28;20144;-74
2021/12/29 07:01:08;;;;;;;8.20;3.13;;;;;;;9.57;100.00;100207.94;5038443;28;20049;-73
2021/12/29 07:03:35;;;;;;;18.63;6.47;;;;;;;9.61;100.00;100211.47;5045577;28;20101;-75
2021/12/29 07:06:02;;;;;;;11.45;4.32;;;;;;;9.57;100.00;100215.44;5042643;28;20045;-73
2021/12/29 07:08:28;;;;;;;20.45;7.65;;;;;;;9.63;100.00;100216.59;5042613;28;20045;-73
2021/12/29 07:10:55;;;;;;;24.15;8.63;;;;;;;9.70;100.00;100220.13;5048111;28;20074;-73
2021/12/29 07:13:22;;;;;;;8.93;4.05;;;;;;;9.64;100.00;100218.97;5051966;28;20052;-74
2021/12/29 07:15:49;;;;;;;8.90;3.42;;;;;;;9.60;100.00;100228.44;5047246;28;20096;-73
2021/12/29 07:18:16;;;;;;;10.40;4.30;;;;;;;9.64;100.00;100241.06;5039283;28;20507;-73
2021/12/29 07:20:44;;;;;;;21.55;8.63;;;;;;;9.72;100.00;100244.56;5051480;28;20052;-73
2021/12/29 07:23:13;;;;;;;13.82;5.20;;;;;;;9.69;100.00;100245.38;5037436;28;20041;-74
2021/12/29 07:25:40;;;;;;;11.80;4.35;;;;;;;9.70;100.00;100247.75;5042911;28;20041;-74
2021/12/29 07:28:07;;;;;;;22.55;9.60;;;;;;;9.75;100.00;100238.22;5036872;28;20037;-73
2021/12/29 07:30:33;;;;;;;13.93;5.70;;;;;;;9.69;100.00;100245.38;5044665;28;20045;-73
2021/12/29 07:33:00;;;;;;;16.15;6.43;;;;;;;9.75;100.00;100243.75;5031462;28;20502;-73
2021/12/29 07:35:26;;;;;;;15.05;5.13;;;;;;;9.66;100.00;100252.47;5036787;28;20075;-75
2021/12/29 07:37:53;;;;;;;15.07;6.53;;;;;;;9.71;100.00;100249.31;5035288;28;20049;-74
2021/12/29 07:40:20;;;;;;;22.73;9.63;;;;;;;9.77;100.00;100258.75;5052633;28;20063;-74
2021/12/29 07:42:47;;;;;;;29.35;12.13;;;;;;;9.81;100.00;100262.28;5046289;28;20063;-73
2021/12/29 07:45:13;;;;;;;17.55;7.40;;;;;;;9.73;100.00;100271.81;5044087;28;20049;-73
2021/12/29 07:47:46;;;;;;;24.98;10.80;;;;;;;9.81;100.00;100276.09;5048327;28;20055;-75
2021/12/29 07:50:18;;;;;;;10.73;3.45;;;;;;;9.73;100.00;100282.84;5034989;28;20055;-75
2021/12/29 07:53:00;;;;;;;19.42;5.38;;;;;;;9.75;100.00;100279.66;5032815;28;20045;-75
2021/12/29 07:55:27;;;;;;;28.00;11.43;;;;;;;9.84;100.00;100280.81;5030789;28;20136;-74
2021/12/29 07:57:54;;;;;;;7.97;4.05;;;;;;;9.78;100.00;100281.63;5029171;28;20053;-75
2021/12/29 08:00:20;;;;;;;18.02;8.18;;;;;;;9.79;100.00;100274.94;5040127;28;20047;-76
2021/12/29 08:02:47;;;;;;;22.80;9.88;;;;;;;9.81;100.00;100284.38;5033781;28;20063;-75
2021/12/29 08:05:15;;;;;;;18.23;7.15;;;;;;;9.78;100.00;100282.41;5031137;28;20080;-74
2021/12/29 08:07:44;;;;;;;14.88;6.18;;;;;;;9.69;100.00;100289.59;5040330;28;20064;-74
2021/12/29 08:10:11;;;;;;;23.90;10.60;;;;;;;9.77;100.00;100302.97;5039301;28;20406;-75
2021/12/29 08:12:37;;;;;;;20.35;7.38;;;;;;;9.71;100.00;100301.78;5037498;28;20435;-75
2021/12/29 08:15:04;;;;;;;10.65;4.78;;;;;;;9.71;100.00;100307.31;5030970;28;20668;-76
2021/12/29 08:17:32;;;;;;;12.82;5.72;;;;;;;9.64;100.00;100288.00;5031434;28;20132;-75
2021/12/29 08:20:00;;;;;;;29.05;12.32;;;;;;;9.71;100.00;100304.56;5039624;28;20077;-75
2021/12/29 08:22:27;;;;;;;20.90;9.30;;;;;;;9.72;100.00;100313.66;5041935;28;20092;-76
2021/12/29 08:24:53;;;;;;;34.20;14.77;;;;;;;9.71;100.00;100309.28;5046639;28;20141;-75
2021/12/29 08:27:20;;;;;;;22.35;9.55;;;;;;;9.72;100.00;100316.41;5037490;28;20049;-74
2021/12/29 08:29:46;;;;;;;4.13;2.88;;;;;;;9.67;100.00;100322.31;5033754;28;20084;-78
2021/12/29 08:32:13;;;;;;;24.77;8.68;;;;;;;9.64;100.00;100326.69;5041870;28;20060;-75
2021/12/29 08:34:40;;;;;;;29.90;13.30;;;;;;;9.68;100.00;100329.41;5035758;28;20055;-75
2021/12/29 08:37:06;;;;;;;10.63;5.07;;;;;;;9.67;100.00;100319.56;5039288;28;20049;-75
2021/12/29 08:39:33;;;;;;;34.70;15.60;;;;;;;9.73;100.00;100313.25;5046234;28;20559;-76
2021/12/29 08:42:00;;;;;;;31.90;14.68;;;;;;;9.71;100.00;100306.53;5034133;28;20072;-76
2021/12/29 08:44:26;;;;;;;28.08;12.02;;;;;;;9.73;100.00;100306.91;5042791;28;20055;-76
2021/12/29 08:46:53;;;;;;;21.80;8.90;;;;;;;9.73;100.00;100312.44;5029871;28;20072;-76
2021/12/29 08:49:20;;;;;;;33.40;15.90;;;;;;;9.75;100.00;100316.38;5051546;28;20133;-76
2021/12/29 08:51:47;;;;;;;17.85;9.02;;;;;;;9.73;100.00;100310.47;5033117;28;20092;-75
2021/12/29 08:54:14;;;;;;;26.10;10.88;;;;;;;9.81;100.00;100319.50;5036180;28;20081;-76
2021/12/29 08:56:40;;;;;;;39.45;18.83;;;;;;;9.78;100.00;100315.56;5041844;28;20069;-76
2021/12/29 08:59:07;;;;;;;48.67;21.15;;;;;;;9.95;100.00;100325.75;5040087;28;20045;-69
2021/12/29 09:01:34;;;;;;;42.65;19.40;;;;;;;9.97;100.00;100322.59;5034620;28;20084;-75
2021/12/29 09:04:01;;;;;;;34.58;12.80;;;;;;;9.91;100.00;100313.94;5029796;28;20096;-75
2021/12/29 09:06:28;;;;;;;50.92;19.65;;;;;;;9.92;100.00;100317.47;5041853;28;20051;-76
2021/12/29 09:08:54;;;;;;;38.65;16.98;;;;;;;9.87;100.00;100323.44;5039369;28;20480;-76
2021/12/29 09:11:21;;;;;;;43.22;20.23;;;;;;;9.91;100.00;100329.72;5042361;28;20049;-76
2021/12/29 09:13:48;;;;;;;40.67;17.95;;;;;;;9.89;100.00;100323.84;5031298;28;20049;-76
2021/12/29 09:16:15;;;;;;;38.72;17.17;;;;;;;9.87;100.00;100320.66;5028806;28;20050;-76
2021/12/29 09:18:41;;;;;;;18.65;7.63;;;;;;;9.87;100.00;100334.50;5047111;28;20059;-74
2021/12/29 09:21:13;;;;;;;25.27;11.68;;;;;;;9.84;100.00;100335.28;5042756;28;20045;-74
2021/12/29 09:23:41;;;;;;;43.00;20.38;;;;;;;9.90;100.00;100334.47;5036661;28;20136;-74
2021/12/29 09:26:12;;;;;;;24.70;10.77;;;;;;;9.87;100.00;100335.28;5041728;28;20164;-73
2021/12/29 09:28:41;;;;;;;11.38;5.70;;;;;;;9.85;100.00;100353.44;5050107;28;20060;-75
2021/12/29 09:31:08;;;;;;;45.13;17.48;;;;;;;9.93;100.00;100355.75;5040980;28;20045;-74
2021/12/29 09:33:36;;;;;;;45.72;18.60;;;;;;;9.93;100.00;100355.75;5030360;28;20053;-75
2021/12/29 09:36:03;;;;;;;48.10;22.77;;;;;;;9.97;100.00;100353.00;5036862;28;20151;-74
2021/12/29 09:38:34;;;;;;;9.30;5.40;;;;;;;9.92;100.00;100358.94;5038182;28;20061;-75
2021/12/29 09:41:03;;;;;;;21.10;7.80;;;;;;;9.97;100.00;100373.16;5035829;28;20136;-75
2021/12/29 09:43:30;;;;;;;26.40;10.27;;;;;;;9.91;100.00;100369.22;5045307;28;20059;-75
2021/12/29 09:45:57;;;;;;;11.23;5.55;;;;;;;9.95;100.00;100366.41;5032338;28;20136;-75
2021/12/29 09:48:23;;;;;;;44.55;20.38;;;;;;;10.04;100.00;100362.06;5033379;28;20140;-76
2021/12/29 09:50:52;;;;;;;22.80;9.18;;;;;;;9.94;100.00;100368.41;5032016;28;20068;-74
2021/12/29 09:53:19;;;;;;;34.60;15.35;;;;;;;10.02;100.00;100367.19;5032019;28;20509;-75
2021/12/29 09:55:46;;;;;;;41.22;18.08;;;;;;;10.09;100.00;100366.38;5031601;28;20049;-75
2021/12/29 09:58:15;;;;;;;15.65;6.00;;;;;;;10.03;100.00;100367.97;5037527;28;20057;-75
2021/12/29 10:00:50;;;;;;;22.85;6.18;;;;;;;10.03;100.00;100357.69;5027636;28;20068;-75
2021/12/29 10:03:21;;;;;;;36.90;15.77;;;;;;;10.09;100.00;100358.88;5036690;28;20053;-75
2021/12/29 10:05:51;;;;;;;33.60;14.65;;;;;;;10.15;100.00;100362.00;5028395;28;20144;-75
2021/12/29 10:08:24;;;;;;;30.20;13.27;;;;;;;10.14;100.00;100354.91;5037724;28;20067;-75
2021/12/29 10:10:53;;;;;;;19.63;8.60;;;;;;;10.17;100.00;100365.19;5036562;28;20080;-76
2021/12/29 10:13:20;;;;;;;41.38;17.75;;;;;;;10.21;100.00;100357.66;5033124;28;20429;-76
2021/12/29 10:15:52;;;;;;;39.92;17.48;;;;;;;10.19;100.00;100358.03;5047099;28;20087;-75
2021/12/29 10:18:25;;;;;;;45.55;18.48;;;;;;;10.20;100.00;100359.59;5041962;28;20053;-75
2021/12/29 10:21:00;;;;;;;47.72;23.27;;;;;;;10.30;100.00;100364.31;5040917;28;20064;-74
2021/12/29 10:23:32;;;;;;;21.33;10.25;;;;;;;10.23;100.00;100358.81;5039746;28;20064;-75
2021/12/29 10:26:15;;;;;;;44.45;21.52;;;;;;;10.31;100.00;100343.78;5028989;28;20137;-75
2021/12/29 10:28:50;;;;;;;45.22;22.55;;;;;;;10.36;100.00;100345.31;5029977;28;20164;-76
2021/12/29 10:31:18;;;;;;;40.83;17.55;;;;;;;10.35;100.00;100355.59;5047166;28;20049;-75
2021/12/29 10:33:49;;;;;;;38.95;19.13;;;;;;;10.34;100.00;100353.22;5038980;28;20068;-75
2021/12/29 10:36:20;;;;;;;35.75;16.13;;;;;;;10.42;100.00;100358.31;5039183;28;20045;-76
2021/12/29 10:39:10;;;;;;;46.10;23.88;;;;;;;10.47;100.00;100357.09;5028292;28;20063;-74
2021/12/29 10:42:01;;;;;;;47.25;22.75;;;;;;;10.53;100.00;100350.72;5049481;28;20596;-76
2021/12/29 10:44:43;;;;;;;42.72;17.50;;;;;;;10.57;100.00;100347.16;5033833;28;20132;-75
2021/12/29 10:47:34;;;;;;;8.43;3.55;;;;;;;10.52;100.00;100339.31;5038804;28;20532;-75
2021/12/29 10:50:08;;;;;;;24.48;9.52;;;;;;;10.51;100.00;100341.28;5033727;28;20068;-75
2021/12/29 10:52:42;;;;;;;35.67;18.17;;;;;;;10.53;100.00;100339.66;5030135;28;20117;-75
2021/12/29 10:55:22;;;;;;;33.35;14.02;;;;;;;10.50;100.00;100346.00;5035961;28;20057;-75
2021/12/29 10:58:03;;;;;;;13.13;5.55;;;;;;;10.50;100.00;100359.84;5034997;28;20076;-75
2021/12/29 11:00:45;;;;;;;23.27;10.48;;;;;;;10.50;100.00;100359.84;5035243;28;20100;-75
2021/12/29 11:03:13;;;;;;;20.48;9.50;;;;;;;10.56;100.00;100354.66;5030804;28;20053;-76
2021/12/29 11:05:48;;;;;;;13.25;5.93;;;;;;;10.52;100.00;100337.31;5026759;28;20498;-76
2021/12/29 11:08:16;;;;;;;19.35;8.48;;;;;;;10.59;100.00;100339.25;5032125;28;20145;-75
2021/12/29 11:10:45;;;;;;;7.07;3.70;;;;;;;10.57;100.00;100331.34;5035801;28;20132;-77
2021/12/29 11:13:22;;;;;;;26.58;13.48;;;;;;;10.67;100.00;100329.69;5029533;28;20136;-72
2021/12/29 11:15:52;;;;;;;18.80;6.57;;;;;;;10.58;100.00;100338.44;5033692;28;20049;-75
2021/12/29 11:18:18;;;;;;;9.02;4.80;;;;;;;10.65;100.00;100334.84;5041499;28;20038;-76
2021/12/29 11:20:45;;;;;;;20.08;9.75;;;;;;;10.63;100.00;100332.47;5033106;28;20055;-75
2021/12/29 11:23:14;;;;;;;22.17;9.52;;;;;;;10.66;100.00;100330.91;5038243;28;20148;-76
2021/12/29 11:25:43;;;;;;;10.82;5.25;;;;;;;10.66;100.00;100331.66;5033619;28;20063;-75
2021/12/29 11:28:23;;;;;;;33.55;14.07;;;;;;;10.68;100.00;100331.25;5036258;28;20049;-75
2021/12/29 11:30:51;;;;;;;11.48;5.18;;;;;;;10.60;100.00;100338.03;5030779;28;20585;-74
2021/12/29 11:33:19;;;;;;;15.25;6.40;;;;;;;10.56;100.00;100340.81;5039759;28;20131;-76